createdAt,value
2022-12-05T00:01:27.001Z,57.67
2022-12-05T00:03:56.482Z,42.50
2022-12-05T00:06:27.478Z,47.47
2022-12-05T00:08:55.267Z,51.90
2022-12-05T00:11:25.921Z,50.85
2022-12-05T00:13:55.219Z,58.25
2022-12-05T00:16:25.325Z,66.15
2022-12-05T00:18:53.555Z,57.50
2022-12-05T00:21:24.488Z,60.00
2022-12-05T00:23:54.643Z,53.50
2022-12-05T00:26:23.151Z,59.88
2022-12-05T00:28:51.286Z,59.97
2022-12-05T00:31:22.451Z,48.50
2022-12-05T00:33:51.408Z,44.35
2022-12-05T00:36:22.127Z,45.30
2022-12-05T00:38:50.361Z,42.13
2022-12-05T00:41:22.206Z,44.83
2022-12-05T00:43:50.164Z,43.30
2022-12-05T00:46:20.868Z,41.47
2022-12-05T00:48:49.307Z,37.65
2022-12-05T00:51:20.341Z,43.75
2022-12-05T00:53:48.796Z,40.97
2022-12-05T00:56:21.236Z,41.30
2022-12-05T00:58:49.808Z,37.83
2022-12-05T01:01:21.681Z,40.70
2022-12-05T01:03:50.246Z,39.25
2022-12-05T01:06:18.559Z,37.42
2022-12-05T01:08:46.288Z,36.78
2022-12-05T01:11:17.120Z,40.63
2022-12-05T01:13:47.219Z,39.15
2022-12-05T01:16:16.896Z,37.20
2022-12-05T01:18:44.785Z,41.72
2022-12-05T01:21:13.361Z,40.63
2022-12-05T01:23:41.766Z,40.60
2022-12-05T01:26:12.669Z,43.53
2022-12-05T01:28:41.678Z,45.45
2022-12-05T01:31:17.816Z,42.55
2022-12-05T01:33:45.761Z,43.05
2022-12-05T01:36:14.228Z,40.97
2022-12-05T01:38:43.512Z,41.42
2022-12-05T01:41:14.615Z,41.70
2022-12-05T01:43:58.795Z,39.13
2022-12-05T01:46:30.212Z,40.55
2022-12-05T01:49:03.307Z,42.08
2022-12-05T01:51:33.421Z,39.55
2022-12-05T01:54:02.179Z,42.13
2022-12-05T01:56:32.690Z,40.45
2022-12-05T01:59:01.643Z,43.47
2022-12-05T02:01:31.121Z,44.35
2022-12-05T02:04:00.240Z,42.20
2022-12-05T02:06:29.592Z,40.85
2022-12-05T02:08:57.373Z,45.63
2022-12-05T02:11:29.797Z,43.83
2022-12-05T02:16:48.747Z,38.30
2022-12-05T02:19:43.848Z,43.83
2022-12-05T02:22:38.292Z,40.03
2022-12-05T02:25:37.591Z,39.38
2022-12-05T02:28:30.896Z,40.92
2022-12-05T02:31:06.623Z,43.08
2022-12-05T02:33:38.169Z,40.72
2022-12-05T02:36:11.326Z,44.27
2022-12-05T02:38:47.240Z,44.70
2022-12-05T02:41:22.198Z,51.63
2022-12-05T02:43:54.670Z,51.20
2022-12-05T02:46:26.671Z,41.35
2022-12-05T02:48:59.501Z,35.28
2022-12-05T02:51:32.762Z,40.03
2022-12-05T02:54:06.444Z,53.72
2022-12-05T02:56:36.810Z,62.65
2022-12-05T02:59:04.979Z,49.33
2022-12-05T03:01:34.278Z,54.08
2022-12-05T03:04:05.843Z,44.33
2022-12-05T03:06:38.053Z,47.97
2022-12-05T03:09:10.064Z,55.42
2022-12-05T03:11:41.023Z,51.40
2022-12-05T03:14:14.393Z,47.83
2022-12-05T03:16:48.314Z,60.33
2022-12-05T03:19:22.101Z,45.40
2022-12-05T03:21:54.983Z,43.90
2022-12-05T03:24:24.179Z,53.85
2022-12-05T03:27:02.107Z,39.67
2022-12-05T03:29:37.106Z,44.83
2022-12-05T03:32:11.792Z,42.47
2022-12-05T03:34:50.751Z,42.83
2022-12-05T03:37:26.393Z,46.30
2022-12-05T03:40:05.955Z,50.95
2022-12-05T03:42:36.271Z,51.67
2022-12-05T03:45:09.420Z,45.17
2022-12-05T03:47:47.045Z,47.38
2022-12-05T03:50:20.620Z,54.17
2022-12-05T03:53:18.787Z,43.78
2022-12-05T03:55:44.294Z,51.72
2022-12-05T03:58:18.748Z,64.82
2022-12-05T04:00:52.671Z,65.30
2022-12-05T04:03:27.955Z,61.20
2022-12-05T04:05:59.991Z,55.97
2022-12-05T04:08:33.102Z,56.80
2022-12-05T04:11:08.812Z,52.13
2022-12-05T04:13:40.720Z,47.85
2022-12-05T04:19:02.931Z,41.85
2022-12-05T04:21:38.787Z,42.28
2022-12-05T04:24:26.897Z,46.63
2022-12-05T04:27:04.978Z,42.22
2022-12-05T04:29:38.301Z,40.97
2022-12-05T04:32:11.402Z,37.28
2022-12-05T04:34:44.519Z,36.72
2022-12-05T04:37:19.533Z,36.33
2022-12-05T04:39:52.571Z,35.10
2022-12-05T04:42:25.942Z,39.53
2022-12-05T04:44:56.783Z,41.38
2022-12-05T04:47:28.507Z,41.47
2022-12-05T04:49:59.195Z,31.40
2022-12-05T04:52:29.962Z,44.50
2022-12-05T04:55:04.519Z,42.95
2022-12-05T04:57:37.644Z,39.72
2022-12-05T05:00:07.082Z,50.83
2022-12-05T05:02:41.576Z,47.08
2022-12-05T05:05:14.478Z,58.25
2022-12-05T05:07:47.233Z,59.45
2022-12-05T05:12:45.516Z,53.70
2022-12-05T05:15:13.330Z,42.15
2022-12-05T05:17:41.544Z,37.53
2022-12-05T05:20:27.189Z,44.63
2022-12-05T05:22:56.378Z,37.28
2022-12-05T05:25:25.851Z,40.10
2022-12-05T05:27:56.554Z,44.35
2022-12-05T05:30:25.404Z,42.33
2022-12-05T05:32:53.785Z,37.70
2022-12-05T05:35:23.277Z,37.22
2022-12-05T05:37:51.264Z,53.03
2022-12-05T05:40:19.631Z,44.25
2022-12-05T05:42:49.239Z,42.00
2022-12-05T05:45:17.609Z,47.05
2022-12-05T05:47:46.485Z,44.35
2022-12-05T05:50:20.940Z,51.17
2022-12-05T05:52:51.067Z,51.35
2022-12-05T05:55:19.233Z,58.88
2022-12-05T05:57:47.388Z,52.45
2022-12-05T06:00:16.406Z,52.25
2022-12-05T06:02:44.659Z,49.65
2022-12-05T06:05:12.644Z,40.65
2022-12-05T06:07:40.832Z,35.70
2022-12-05T06:10:10.708Z,32.00
2022-12-05T06:12:38.688Z,30.88
2022-12-05T06:15:08.076Z,29.33
2022-12-05T06:17:36.242Z,29.92
2022-12-05T06:20:04.609Z,32.47
2022-12-05T06:22:33.128Z,35.03
2022-12-05T06:25:01.043Z,31.40
2022-12-05T06:27:32.151Z,31.45
2022-12-05T06:30:00.411Z,30.08
2022-12-05T06:32:29.715Z,29.88
2022-12-05T06:34:57.649Z,34.80
2022-12-05T06:37:26.803Z,32.58
2022-12-05T06:39:54.736Z,39.78
2022-12-05T06:42:22.913Z,42.55
2022-12-05T06:44:52.127Z,44.10
2022-12-05T06:47:20.163Z,52.67
2022-12-05T06:49:47.951Z,39.35
2022-12-05T06:52:16.064Z,43.38
2022-12-05T06:54:43.815Z,45.38
2022-12-05T06:57:11.841Z,39.95
2022-12-05T06:59:39.913Z,44.20
2022-12-05T07:02:11.463Z,44.55
2022-12-05T07:04:39.661Z,37.33
2022-12-05T07:07:08.215Z,34.05
2022-12-05T07:09:48.689Z,42.55
2022-12-05T07:12:19.429Z,39.63
2022-12-05T07:14:49.261Z,34.80
2022-12-05T07:17:20.270Z,46.30
2022-12-05T07:19:50.052Z,37.80
2022-12-05T07:22:18.942Z,37.90
2022-12-05T07:24:47.306Z,37.72
2022-12-05T07:27:20.556Z,34.03
2022-12-05T07:29:52.168Z,32.42
2022-12-05T07:32:21.679Z,30.23
2022-12-05T07:34:54.782Z,36.25
2022-12-05T07:37:23.770Z,33.92
2022-12-05T07:39:53.631Z,36.38
2022-12-05T07:42:21.876Z,39.03
2022-12-05T07:44:49.942Z,37.65
2022-12-05T07:47:18.083Z,36.67
2022-12-05T07:49:47.224Z,34.47
2022-12-05T07:52:15.560Z,38.92
2022-12-05T07:54:43.274Z,38.35
2022-12-05T07:57:11.240Z,44.72
2022-12-05T07:59:39.284Z,57.88
2022-12-05T08:02:07.520Z,52.22
2022-12-05T08:04:35.376Z,52.20
2022-12-05T08:07:04.929Z,55.47
2022-12-05T08:09:32.667Z,60.15
2022-12-05T08:12:00.904Z,49.33
2022-12-05T08:14:29.200Z,57.35
2022-12-05T08:16:57.385Z,53.35
2022-12-05T08:19:25.215Z,65.43
2022-12-05T08:21:55.357Z,67.18
2022-12-05T08:24:25.103Z,49.72
2022-12-05T08:26:53.223Z,81.68
2022-12-05T08:29:23.315Z,77.90
2022-12-05T08:31:52.812Z,66.07
2022-12-05T08:34:22.035Z,78.88
2022-12-05T08:36:50.473Z,59.25
2022-12-05T08:39:20.531Z,51.60
2022-12-05T08:41:50.589Z,63.42
2022-12-05T08:44:18.971Z,53.67
2022-12-05T08:46:49.023Z,54.85
2022-12-05T08:49:18.240Z,65.45
2022-12-05T08:51:46.636Z,66.63
2022-12-05T08:54:14.816Z,67.85
2022-12-05T08:56:43.085Z,74.55
2022-12-05T08:59:12.371Z,63.05
2022-12-05T09:01:42.085Z,84.15
2022-12-05T09:04:10.368Z,72.63
2022-12-05T09:06:39.328Z,63.15
2022-12-05T09:09:11.345Z,55.25
2022-12-05T09:14:09.410Z,51.60
2022-12-05T09:16:40.010Z,58.35
2022-12-05T09:19:13.552Z,64.45
2022-12-05T09:21:42.338Z,81.20
2022-12-05T09:24:12.774Z,65.85
2022-12-05T09:26:42.148Z,84.93
2022-12-05T09:29:16.166Z,84.43
2022-12-05T09:31:48.402Z,81.50
2022-12-05T09:34:17.970Z,43.13
2022-12-05T09:36:49.592Z,52.55
2022-12-05T09:39:17.425Z,48.63
2022-12-05T09:42:10.158Z,52.53
2022-12-05T09:45:02.367Z,64.43
2022-12-05T09:47:47.324Z,53.93
2022-12-05T09:50:21.782Z,56.33
2022-12-05T09:53:01.201Z,60.78
2022-12-05T09:55:37.107Z,74.38
2022-12-05T09:58:12.602Z,51.80
2022-12-05T10:00:41.155Z,49.13
2022-12-05T10:03:22.662Z,55.53
2022-12-05T10:05:59.228Z,61.13
2022-12-05T10:08:33.782Z,60.75
2022-12-05T10:11:06.254Z,57.05
2022-12-05T10:13:49.510Z,56.10
2022-12-05T10:16:23.281Z,53.38
2022-12-05T10:18:58.390Z,51.45
2022-12-05T10:21:32.491Z,52.67
2022-12-05T10:24:03.392Z,51.97
2022-12-05T10:26:35.613Z,50.45
2022-12-05T10:29:13.596Z,49.65
2022-12-05T10:31:43.256Z,51.28
2022-12-05T10:34:17.777Z,68.20
2022-12-05T10:36:56.041Z,71.35
2022-12-05T10:39:24.681Z,64.22
2022-12-05T10:41:52.655Z,54.90
2022-12-05T10:44:20.866Z,55.92
2022-12-05T10:46:49.675Z,56.08
2022-12-05T10:49:20.450Z,53.83
2022-12-05T10:51:49.265Z,49.72
2022-12-05T10:54:21.861Z,72.35
2022-12-05T10:56:50.831Z,61.60
2022-12-05T10:59:21.305Z,51.72
2022-12-05T11:01:53.172Z,52.58
2022-12-05T11:06:57.440Z,58.25
2022-12-05T11:09:28.271Z,50.13
2022-12-05T11:12:07.420Z,46.75
2022-12-05T11:14:36.273Z,45.40
2022-12-05T11:17:06.241Z,47.03
2022-12-05T11:19:38.213Z,44.78
2022-12-05T11:22:07.944Z,45.60
2022-12-05T11:24:37.583Z,46.53
2022-12-05T11:27:21.756Z,48.10
2022-12-05T11:30:02.421Z,53.42
2022-12-05T11:32:32.086Z,48.00
2022-12-05T11:35:10.001Z,53.83
2022-12-05T11:37:45.573Z,63.38
2022-12-05T11:40:16.875Z,61.35
2022-12-05T11:43:02.915Z,85.40
2022-12-05T11:45:42.390Z,62.53
2022-12-05T11:48:23.723Z,45.75
2022-12-05T11:51:11.699Z,53.33
2022-12-05T11:54:03.510Z,83.80
2022-12-05T11:56:38.279Z,90.45
2022-12-05T11:59:38.280Z,64.63
2022-12-05T12:02:22.344Z,63.47
2022-12-05T12:05:01.005Z,96.88
2022-12-05T12:07:55.888Z,48.72
2022-12-05T12:10:32.343Z,47.28
2022-12-05T12:13:12.285Z,97.15
2022-12-05T12:15:52.180Z,69.40
2022-12-05T12:18:39.379Z,53.80
2022-12-05T12:21:18.810Z,50.08
2022-12-05T12:24:01.052Z,46.97
2022-12-05T12:26:42.518Z,45.55
2022-12-05T12:29:22.416Z,46.33
2022-12-05T12:32:09.327Z,48.97
2022-12-05T12:34:57.392Z,48.25
2022-12-05T12:37:35.780Z,49.08
2022-12-05T12:40:14.955Z,55.10
2022-12-05T12:42:54.031Z,52.60
2022-12-05T12:45:34.287Z,108.57
2022-12-05T12:48:16.527Z,48.28
2022-12-05T12:50:47.649Z,47.08
2022-12-05T12:53:41.173Z,44.40
2022-12-05T12:56:22.338Z,46.05
2022-12-05T12:58:55.427Z,45.58
2022-12-05T13:01:34.893Z,46.17
2022-12-05T13:04:12.573Z,51.15
2022-12-05T13:06:45.948Z,65.78
2022-12-05T13:09:20.257Z,47.50
2022-12-05T13:11:51.709Z,43.13
2022-12-05T13:14:25.299Z,39.67
2022-12-05T13:16:55.553Z,41.65
2022-12-05T13:19:30.875Z,42.03
2022-12-05T13:22:00.057Z,39.70
2022-12-05T13:24:29.595Z,39.75
2022-12-05T13:27:02.623Z,39.22
2022-12-05T13:29:34.317Z,40.60
2022-12-05T13:32:03.989Z,41.63
2022-12-05T13:34:45.831Z,40.40
2022-12-05T13:37:39.281Z,40.47
2022-12-05T13:40:40.049Z,39.88
2022-12-05T13:43:11.239Z,42.67
2022-12-05T13:45:40.507Z,42.53
2022-12-05T13:48:19.379Z,41.30
2022-12-05T13:50:53.579Z,37.10
2022-12-05T13:53:30.482Z,39.33
2022-12-05T13:56:01.584Z,36.10
2022-12-05T13:58:52.756Z,38.05
2022-12-05T14:01:53.812Z,35.10
2022-12-05T14:04:50.152Z,38.38
2022-12-05T14:07:42.009Z,36.50
2022-12-05T14:10:13.124Z,37.88
2022-12-05T14:12:50.307Z,58.97
2022-12-05T14:15:36.183Z,64.68
2022-12-05T14:18:15.602Z,66.65
2022-12-05T14:20:50.823Z,76.20
2022-12-05T14:23:33.378Z,68.45
2022-12-05T14:26:16.132Z,71.72
2022-12-05T14:28:56.683Z,65.72
2022-12-05T14:31:39.467Z,60.08
2022-12-05T14:34:17.862Z,61.00
2022-12-05T14:36:58.524Z,60.75
2022-12-05T14:39:40.542Z,58.05
2022-12-05T14:42:28.019Z,58.72
2022-12-05T14:44:59.293Z,60.45
2022-12-05T14:47:31.440Z,60.77
2022-12-05T14:50:04.272Z,61.10
2022-12-05T14:52:34.708Z,58.92
2022-12-05T14:55:09.463Z,58.08
2022-12-05T14:57:48.204Z,56.30
2022-12-05T15:00:22.410Z,57.58
2022-12-05T15:02:55.518Z,56.33
2022-12-05T15:05:28.489Z,55.63
2022-12-05T15:07:59.643Z,57.40
2022-12-05T15:10:30.568Z,55.15
2022-12-05T15:13:01.847Z,56.65
2022-12-05T15:15:37.146Z,55.28
2022-12-05T15:18:22.374Z,57.17
2022-12-05T15:20:58.143Z,54.22
2022-12-05T15:23:42.703Z,54.90
2022-12-05T15:29:14.364Z,73.53
2022-12-05T15:31:47.107Z,66.40
2022-12-05T15:34:22.719Z,66.88
2022-12-05T15:36:56.730Z,69.00
2022-12-05T15:39:28.480Z,61.47
2022-12-05T15:41:58.181Z,57.13
2022-12-05T15:44:35.907Z,55.53
2022-12-05T15:47:05.873Z,57.90
2022-12-05T15:49:36.068Z,60.65
2022-12-05T15:52:16.597Z,57.42
2022-12-05T15:54:45.690Z,58.05
2022-12-05T15:57:18.875Z,55.28
2022-12-05T15:59:51.857Z,56.83
2022-12-05T16:02:23.694Z,92.28
2022-12-05T16:04:57.643Z,64.25
2022-12-05T16:07:29.078Z,56.00
2022-12-05T16:10:00.271Z,55.13
2022-12-05T16:12:34.345Z,56.08
2022-12-05T16:15:05.610Z,57.83
2022-12-05T16:17:41.480Z,61.42
2022-12-05T16:20:23.766Z,59.33
2022-12-05T16:22:54.487Z,63.22
2022-12-05T16:25:26.202Z,59.20
2022-12-05T16:27:58.820Z,154.55
2022-12-05T16:30:27.931Z,148.82
2022-12-05T16:33:01.968Z,125.72
2022-12-05T16:35:35.484Z,111.47
2022-12-05T16:38:05.580Z,99.53
2022-12-05T16:40:34.267Z,100.55
2022-12-05T16:43:03.720Z,104.00
2022-12-05T16:45:40.935Z,96.63
2022-12-05T16:48:17.970Z,99.13
2022-12-05T16:50:48.152Z,115.75
2022-12-05T16:53:37.686Z,115.70
2022-12-05T16:56:07.080Z,109.45
2022-12-05T16:58:36.753Z,97.07
2022-12-05T17:01:07.326Z,96.18
2022-12-05T17:03:36.224Z,103.63
2022-12-05T17:06:06.699Z,119.45
2022-12-05T17:08:34.584Z,122.60
2022-12-05T17:11:03.655Z,128.35
2022-12-05T17:13:32.969Z,126.13
2022-12-05T17:16:01.156Z,126.82
2022-12-05T17:18:32.134Z,124.32
2022-12-05T17:21:02.978Z,118.25
2022-12-05T17:23:32.274Z,111.93
2022-12-05T17:26:00.720Z,111.32
2022-12-05T17:28:28.662Z,114.63
2022-12-05T17:30:57.198Z,115.13
2022-12-05T17:33:25.324Z,116.47
2022-12-05T17:35:53.642Z,116.60
2022-12-05T17:38:21.995Z,109.43
2022-12-05T17:40:51.617Z,119.85
2022-12-05T17:43:24.993Z,120.07
2022-12-05T17:45:54.672Z,129.25
2022-12-05T17:48:23.074Z,128.95
2022-12-05T17:50:51.370Z,128.23
2022-12-05T17:53:21.163Z,135.38
2022-12-05T17:55:50.944Z,133.73
2022-12-05T17:58:19.342Z,134.90
2022-12-05T18:00:48.530Z,139.50
2022-12-05T18:03:19.123Z,133.60
2022-12-05T18:05:47.975Z,133.25
2022-12-05T18:08:17.473Z,135.57
2022-12-05T18:10:48.212Z,127.45
2022-12-05T18:13:18.681Z,128.10
2022-12-05T18:15:49.171Z,131.38
2022-12-05T18:18:20.076Z,128.63
2022-12-05T18:20:48.360Z,129.30
2022-12-05T18:23:16.147Z,133.13
2022-12-05T18:25:44.464Z,127.65
2022-12-05T18:28:16.385Z,125.70
2022-12-05T18:30:49.041Z,95.40
2022-12-05T18:33:16.953Z,110.80
2022-12-05T18:35:45.056Z,126.00
2022-12-05T18:38:13.343Z,128.05
2022-12-05T18:40:42.031Z,99.93
2022-12-05T18:43:09.800Z,97.07
2022-12-05T18:45:37.982Z,79.03
2022-12-05T18:48:37.701Z,72.97
2022-12-05T18:50:55.611Z,108.78
2022-12-05T18:53:23.548Z,118.22
2022-12-05T18:56:13.735Z,123.70
2022-12-05T18:58:39.693Z,96.15
2022-12-05T19:01:09.626Z,96.65
2022-12-05T19:03:40.149Z,80.63
2022-12-05T19:06:16.154Z,71.82
2022-12-05T19:08:45.443Z,74.70
2022-12-05T19:11:16.043Z,74.38
2022-12-05T19:13:44.194Z,76.30
2022-12-05T19:16:16.772Z,82.95
2022-12-05T19:18:46.953Z,73.60
2022-12-05T19:21:15.015Z,120.50
2022-12-05T19:23:42.931Z,129.55
2022-12-05T19:26:11.311Z,130.30
2022-12-05T19:28:39.547Z,130.25
2022-12-05T19:31:09.450Z,135.13
2022-12-05T19:33:39.158Z,139.00
2022-12-05T19:36:11.461Z,137.05
2022-12-05T19:38:41.359Z,138.38
2022-12-05T19:41:11.403Z,140.32
2022-12-05T19:43:40.304Z,138.57
2022-12-05T19:46:11.845Z,141.27
2022-12-05T19:48:40.149Z,142.07
2022-12-05T19:51:09.983Z,135.27
2022-12-05T19:53:41.076Z,137.82
2022-12-05T19:56:14.088Z,137.65
2022-12-05T19:58:43.296Z,142.77
2022-12-05T20:01:13.272Z,139.40
2022-12-05T20:03:42.445Z,132.45
2022-12-05T20:06:12.202Z,131.40
2022-12-05T20:08:40.941Z,130.30
2022-12-05T20:11:11.644Z,143.02
2022-12-05T20:13:48.839Z,168.15
2022-12-05T20:16:18.835Z,211.93
2022-12-05T20:18:47.316Z,179.32
2022-12-05T20:21:18.633Z,152.85
2022-12-05T20:23:46.989Z,150.68
2022-12-05T20:26:16.877Z,139.43
2022-12-05T20:28:46.133Z,147.10
2022-12-05T20:31:16.603Z,153.18
2022-12-05T20:33:44.984Z,151.05
2022-12-05T20:36:14.832Z,157.57
2022-12-05T20:38:44.733Z,153.02
2022-12-05T20:41:15.382Z,141.68
2022-12-05T20:43:43.949Z,133.30
2022-12-05T20:46:14.808Z,145.32
2022-12-05T20:48:43.829Z,140.10
2022-12-05T20:51:13.959Z,141.43
2022-12-05T20:53:45.100Z,151.82
2022-12-05T20:56:16.299Z,154.43
2022-12-05T20:58:46.351Z,153.32
2022-12-05T21:01:15.709Z,148.38
2022-12-05T21:03:45.159Z,156.75
2022-12-05T21:06:15.030Z,145.73
2022-12-05T21:08:44.734Z,154.60
2022-12-05T21:11:14.200Z,158.13
2022-12-05T21:13:42.616Z,151.32
2022-12-05T21:16:13.401Z,157.32
2022-12-05T21:18:41.668Z,140.02
2022-12-05T21:21:15.524Z,142.52
2022-12-05T21:23:46.457Z,156.57
2022-12-05T21:26:17.603Z,162.70
2022-12-05T21:28:47.277Z,162.80
2022-12-05T21:31:17.932Z,158.48
2022-12-05T21:33:49.326Z,151.65
2022-12-05T21:36:18.657Z,173.07
2022-12-05T21:38:52.397Z,156.50
2022-12-05T21:41:23.919Z,145.27
2022-12-05T21:43:54.979Z,143.27
2022-12-05T21:46:24.065Z,141.35
2022-12-05T21:48:52.472Z,145.75
2022-12-05T21:51:21.062Z,148.43
2022-12-05T21:53:50.815Z,154.13
2022-12-05T21:56:22.712Z,156.52
2022-12-05T21:58:50.979Z,150.02
2022-12-05T22:01:22.679Z,156.43
2022-12-05T22:03:52.799Z,153.00
2022-12-05T22:06:21.048Z,142.57
2022-12-05T22:08:50.447Z,123.03
2022-12-05T22:11:20.421Z,154.63
2022-12-05T22:13:49.581Z,148.38
2022-12-05T22:16:19.022Z,153.82
2022-12-05T22:18:47.282Z,175.18
2022-12-05T22:21:17.363Z,181.27
2022-12-05T22:23:45.776Z,171.18
2022-12-05T22:26:18.071Z,171.68
2022-12-05T22:28:46.373Z,186.48
2022-12-05T22:31:16.769Z,176.85
2022-12-05T22:33:45.238Z,173.57
2022-12-05T22:36:14.704Z,170.90
2022-12-05T22:38:44.434Z,161.07
2022-12-05T22:41:15.785Z,169.35
2022-12-05T22:43:46.240Z,174.77
2022-12-05T22:46:17.480Z,168.93
2022-12-05T22:48:46.382Z,155.85
2022-12-05T22:51:15.589Z,167.75
2022-12-05T22:53:43.330Z,166.23
2022-12-05T22:56:13.347Z,169.60
2022-12-05T22:58:43.267Z,171.82
2022-12-05T23:01:13.800Z,171.77
2022-12-05T23:03:42.661Z,169.75
2022-12-05T23:06:12.616Z,168.73
2022-12-05T23:08:41.261Z,157.90
2022-12-05T23:11:10.395Z,159.20
2022-12-05T23:13:39.573Z,155.40
2022-12-05T23:16:11.416Z,149.70
2022-12-05T23:18:47.513Z,139.38
2022-12-05T23:21:20.380Z,158.20
2022-12-05T23:23:49.276Z,147.63
2022-12-05T23:26:20.359Z,155.27
2022-12-05T23:28:48.452Z,148.73
2022-12-05T23:31:18.518Z,151.23
2022-12-05T23:33:50.852Z,151.70
2022-12-05T23:36:20.419Z,155.20
2022-12-05T23:38:48.621Z,153.68
2022-12-05T23:41:18.559Z,149.05
2022-12-05T23:43:48.364Z,153.27
2022-12-05T23:46:19.519Z,147.00
2022-12-05T23:48:48.185Z,151.32
2022-12-05T23:51:18.569Z,170.05
2022-12-05T23:53:47.817Z,173.07
2022-12-05T23:56:17.878Z,167.25
2022-12-05T23:58:46.562Z,177.30
